Airport ICAO


20:13 UTC

26°C


An affordable passengers' Moving Map for your aircraft. Made for the iPad and the iPhone
More information here

EGLC City


London UNITED KINGDOM   VFR


METAR EGLC 161950Z AUTO 23009KT 9999 NCD 26/09 Q1012 0h23min

TAF EGLC 161702Z 1618/1621 26008KT 9999 FEW045 3h11min





NOTAMS

OPEN